createdAt,value
2016-01-17T00:00:16.885Z,18.84
2016-01-17T00:01:16.966Z,18.86
2016-01-17T00:02:16.984Z,18.86
2016-01-17T00:03:17.097Z,18.84
2016-01-17T00:04:17.099Z,18.84
2016-01-17T00:05:17.102Z,18.82
2016-01-17T00:06:17.183Z,18.87
2016-01-17T00:07:17.154Z,18.86
2016-01-17T00:08:17.203Z,18.82
2016-01-17T00:09:17.254Z,18.84
2016-01-17T00:10:17.287Z,18.87
2016-01-17T00:11:17.337Z,18.89
2016-01-17T00:12:17.386Z,18.83
2016-01-17T00:13:17.482Z,18.82
2016-01-17T00:14:17.470Z,18.9
2016-01-17T00:15:17.488Z,18.82
2016-01-17T00:16:17.553Z,18.87
2016-01-17T00:17:17.572Z,18.84
2016-01-17T00:18:17.636Z,18.86
2016-01-17T00:19:17.655Z,18.87
2016-01-17T00:20:17.705Z,18.82
2016-01-17T00:21:17.753Z,18.87
2016-01-17T00:22:17.803Z,18.87
2016-01-17T00:23:17.838Z,18.82
2016-01-17T00:24:17.871Z,18.89
2016-01-17T00:25:17.983Z,18.87
2016-01-17T00:26:18.003Z,18.86
2016-01-17T00:27:18.019Z,18.84
2016-01-17T00:28:18.038Z,18.77
2016-01-17T00:29:18.104Z,18.9
2016-01-17T00:30:18.122Z,18.87
2016-01-17T00:31:18.156Z,18.84
2016-01-17T00:32:18.205Z,18.87
2016-01-17T00:33:18.240Z,18.92
2016-01-17T00:34:18.321Z,18.79
2016-01-17T00:35:18.338Z,18.84
2016-01-17T00:36:18.232Z,18.69
2016-01-17T00:37:18.438Z,18.76
2016-01-17T00:38:18.487Z,18.74
2016-01-17T00:39:18.521Z,18.79
2016-01-17T00:40:18.540Z,18.84
2016-01-17T00:41:18.590Z,18.84
2016-01-17T00:42:18.654Z,18.74
2016-01-17T00:43:18.704Z,18.74
2016-01-17T00:44:18.738Z,18.76
2016-01-17T00:45:18.773Z,18.83
2016-01-17T00:46:18.806Z,18.68
2016-01-17T00:47:18.856Z,18.76
2016-01-17T00:48:18.889Z,18.68
2016-01-17T00:49:18.954Z,18.69
2016-01-17T00:50:19.004Z,18.74
2016-01-17T00:51:19.023Z,18.77
2016-01-17T00:52:19.072Z,18.71
2016-01-17T00:53:19.090Z,18.69
2016-01-17T00:54:19.139Z,18.73
2016-01-17T00:55:19.175Z,18.67
2016-01-17T00:56:19.223Z,18.71
2016-01-17T00:57:19.258Z,18.74
2016-01-17T00:58:19.338Z,18.69
2016-01-17T00:59:19.372Z,18.67
2016-01-17T01:00:19.391Z,18.67
2016-01-17T01:01:19.425Z,18.65
2016-01-17T01:02:19.479Z,18.76
2016-01-17T01:03:19.559Z,18.64
2016-01-17T01:04:19.563Z,18.73
2016-01-17T01:05:19.627Z,18.79
2016-01-17T01:06:19.645Z,18.74
2016-01-17T01:07:19.696Z,18.74
2016-01-17T01:08:19.713Z,18.73
2016-01-17T01:09:19.763Z,18.71
2016-01-17T01:10:19.828Z,18.74
2016-01-17T01:11:19.893Z,18.77
2016-01-17T01:12:19.881Z,18.8
2016-01-17T01:13:19.946Z,18.71
2016-01-17T01:14:19.995Z,18.76
2016-01-17T01:15:20.061Z,18.73
2016-01-17T01:16:20.064Z,18.76
2016-01-17T01:17:20.129Z,18.79
2016-01-17T01:18:20.162Z,18.65
2016-01-17T01:19:20.181Z,18.71
2016-01-17T01:20:20.214Z,18.73
2016-01-17T01:21:20.280Z,18.74
2016-01-17T01:22:20.298Z,18.69
2016-01-17T01:23:20.363Z,18.68
2016-01-17T01:24:20.397Z,18.71
2016-01-17T01:25:20.478Z,18.77
2016-01-17T01:26:20.450Z,18.74
2016-01-17T01:27:20.530Z,18.73
2016-01-17T01:28:20.580Z,18.73
2016-01-17T01:29:20.613Z,18.73
2016-01-17T01:30:20.711Z,18.74
2016-01-17T01:31:20.680Z,18.77
2016-01-17T01:32:20.775Z,18.76
2016-01-17T01:33:20.777Z,18.79
2016-01-17T01:34:20.812Z,18.79
2016-01-17T01:35:20.846Z,18.83
2016-01-17T01:36:20.990Z,18.76
2016-01-17T01:37:21.008Z,18.73
2016-01-17T01:38:20.823Z,18.71
2016-01-17T01:39:21.030Z,18.73
2016-01-17T01:40:21.079Z,18.68
2016-01-17T01:41:21.160Z,18.73
2016-01-17T01:42:21.131Z,18.74
2016-01-17T01:43:21.180Z,18.79
2016-01-17T01:44:21.215Z,18.76
2016-01-17T01:45:21.295Z,18.76
2016-01-17T01:46:21.299Z,18.74
2016-01-17T01:47:21.410Z,18.69
2016-01-17T01:48:21.429Z,18.69
2016-01-17T01:49:21.463Z,18.74
2016-01-17T01:50:21.496Z,18.76
2016-01-17T01:51:21.563Z,18.74
2016-01-17T01:52:21.581Z,18.76
2016-01-17T01:53:21.599Z,18.62
2016-01-17T01:54:21.649Z,18.73
2016-01-17T01:55:21.683Z,18.74
2016-01-17T01:56:21.811Z,18.69
2016-01-17T01:57:21.829Z,18.68
2016-01-17T01:58:21.832Z,18.65
2016-01-17T01:59:21.882Z,18.77
2016-01-17T02:00:21.946Z,18.68
2016-01-17T02:01:21.949Z,18.73
2016-01-17T02:02:21.827Z,18.58
2016-01-17T02:03:22.018Z,18.69
2016-01-17T02:04:22.099Z,18.71
2016-01-17T02:05:22.101Z,18.77
2016-01-17T02:06:22.198Z,18.71
2016-01-17T02:07:22.310Z,18.71
2016-01-17T02:08:22.343Z,18.71
2016-01-17T02:09:22.331Z,18.73
2016-01-17T02:10:22.348Z,18.69
2016-01-17T02:11:22.352Z,18.69
2016-01-17T02:12:22.464Z,18.62
2016-01-17T02:13:22.498Z,18.67
2016-01-17T02:14:22.515Z,18.73
2016-01-17T02:15:22.551Z,18.61
2016-01-17T02:16:22.600Z,18.61
2016-01-17T02:17:22.695Z,18.62
2016-01-17T02:18:22.683Z,18.61
2016-01-17T02:19:22.748Z,18.67
2016-01-17T02:20:22.798Z,18.71
2016-01-17T02:21:22.769Z,18.64
2016-01-17T02:22:22.897Z,18.68
2016-01-17T02:23:22.883Z,18.71
2016-01-17T02:24:22.902Z,18.64
2016-01-17T02:25:23.014Z,18.67
2016-01-17T02:26:22.970Z,18.64
2016-01-17T02:27:23.019Z,18.68
2016-01-17T02:28:23.194Z,18.69
2016-01-17T02:29:23.135Z,18.67
2016-01-17T02:30:23.263Z,18.69
2016-01-17T02:31:23.249Z,18.68
2016-01-17T02:32:23.268Z,18.64
2016-01-17T02:33:23.317Z,18.68
2016-01-17T02:34:23.319Z,18.64
2016-01-17T02:35:23.401Z,18.68
2016-01-17T02:36:23.481Z,18.64
2016-01-17T02:37:23.452Z,18.65
2016-01-17T02:38:23.518Z,18.68
2016-01-17T02:39:23.551Z,18.61
2016-01-17T02:40:23.585Z,18.65
2016-01-17T02:41:23.667Z,18.65
2016-01-17T02:42:23.654Z,18.67
2016-01-17T02:43:23.860Z,18.67
2016-01-17T02:44:23.785Z,18.61
2016-01-17T02:45:23.834Z,18.61
2016-01-17T02:46:23.806Z,18.62
2016-01-17T02:47:24.026Z,18.64
2016-01-17T02:48:23.904Z,18.62
2016-01-17T02:49:23.922Z,18.65
2016-01-17T02:50:23.972Z,18.64
2016-01-17T02:51:24.022Z,18.59
2016-01-17T02:52:24.056Z,18.67
2016-01-17T02:53:24.090Z,18.67
2016-01-17T02:54:24.139Z,18.62
2016-01-17T02:55:24.189Z,18.59
2016-01-17T02:56:24.208Z,18.65
2016-01-17T02:57:24.273Z,18.59
2016-01-17T02:58:24.322Z,18.62
2016-01-17T02:59:24.356Z,18.59
2016-01-17T03:00:24.390Z,18.59
2016-01-17T03:01:24.424Z,18.64
2016-01-17T03:02:24.489Z,18.58
2016-01-17T03:03:24.633Z,18.61
2016-01-17T03:04:24.713Z,18.65
2016-01-17T03:05:24.778Z,18.62
2016-01-17T03:06:24.655Z,18.61
2016-01-17T03:07:24.722Z,18.61
2016-01-17T03:08:24.771Z,18.58
2016-01-17T03:09:24.805Z,18.57
2016-01-17T03:10:24.838Z,18.57
2016-01-17T03:11:24.857Z,18.61
2016-01-17T03:12:24.954Z,18.62
2016-01-17T03:13:24.956Z,18.55
2016-01-17T03:14:25.006Z,18.57
2016-01-17T03:15:25.055Z,18.64
2016-01-17T03:16:25.057Z,18.55
2016-01-17T03:17:25.123Z,18.58
2016-01-17T03:18:25.142Z,18.65
2016-01-17T03:19:25.284Z,18.55
2016-01-17T03:20:25.256Z,18.57
2016-01-17T03:21:25.275Z,18.55
2016-01-17T03:22:25.308Z,18.53
2016-01-17T03:23:25.331Z,18.52
2016-01-17T03:24:25.788Z,18.58
2016-01-17T03:25:25.601Z,18.59
2016-01-17T03:26:25.698Z,18.55
2016-01-17T03:27:25.622Z,18.53
2016-01-17T03:28:25.767Z,18.53
2016-01-17T03:29:26.128Z,18.57
2016-01-17T03:30:25.756Z,18.62
2016-01-17T03:31:25.681Z,18.58
2016-01-17T03:32:25.746Z,18.53
2016-01-17T03:33:25.921Z,18.55
2016-01-17T03:34:25.798Z,18.57
2016-01-17T03:35:25.957Z,18.52
2016-01-17T03:36:26.069Z,18.52
2016-01-17T03:37:26.041Z,18.57
2016-01-17T03:38:26.027Z,18.53
2016-01-17T03:39:26.030Z,18.53
2016-01-17T03:40:26.189Z,18.55
2016-01-17T03:41:26.099Z,18.62
2016-01-17T03:42:26.150Z,18.55
2016-01-17T03:43:26.246Z,18.55
2016-01-17T03:44:26.233Z,18.55
2016-01-17T03:45:26.267Z,18.53
2016-01-17T03:46:26.316Z,18.49
2016-01-17T03:47:26.428Z,18.52
2016-01-17T03:48:26.494Z,18.57
2016-01-17T03:49:26.512Z,18.5
2016-01-17T03:50:26.546Z,18.52
2016-01-17T03:51:26.502Z,18.5
2016-01-17T03:52:26.552Z,18.52
2016-01-17T03:53:26.757Z,18.55
2016-01-17T03:54:26.760Z,18.42
2016-01-17T03:55:26.747Z,18.57
2016-01-17T03:56:26.719Z,18.52
2016-01-17T03:57:26.816Z,18.47
2016-01-17T03:58:26.833Z,18.55
2016-01-17T03:59:26.852Z,18.57
2016-01-17T04:00:26.949Z,18.55
2016-01-17T04:01:26.935Z,18.55
2016-01-17T04:02:27.015Z,18.52
2016-01-17T04:03:27.066Z,18.59
2016-01-17T04:04:27.069Z,18.55
2016-01-17T04:05:27.118Z,18.53
2016-01-17T04:06:27.152Z,18.53
2016-01-17T04:07:27.201Z,18.53
2016-01-17T04:08:27.251Z,18.52
2016-01-17T04:09:27.270Z,18.58
2016-01-17T04:10:27.320Z,18.53
2016-01-17T04:11:27.353Z,18.47
2016-01-17T04:12:27.418Z,18.49
2016-01-17T04:13:27.545Z,18.52
2016-01-17T04:14:27.501Z,18.52
2016-01-17T04:15:27.551Z,18.61
2016-01-17T04:16:27.601Z,18.55
2016-01-17T04:17:27.604Z,18.53
2016-01-17T04:18:27.887Z,18.46
2016-01-17T04:19:27.765Z,18.47
2016-01-17T04:20:27.722Z,18.57
2016-01-17T04:21:27.770Z,18.53
2016-01-17T04:22:27.820Z,18.55
2016-01-17T04:23:27.916Z,18.53
2016-01-17T04:24:27.950Z,18.52
2016-01-17T04:25:27.969Z,18.58
2016-01-17T04:26:27.972Z,18.47
2016-01-17T04:27:28.021Z,18.58
2016-01-17T04:28:28.118Z,18.55
2016-01-17T04:29:28.167Z,18.49
2016-01-17T04:30:28.154Z,18.46
2016-01-17T04:31:28.235Z,18.52
2016-01-17T04:32:28.269Z,18.55
2016-01-17T04:33:28.257Z,18.52
2016-01-17T04:34:28.322Z,18.53
2016-01-17T04:35:27.619Z,18.52
2016-01-17T04:36:28.404Z,18.46
2016-01-17T04:37:28.454Z,18.52
2016-01-17T04:38:28.458Z,18.44
2016-01-17T04:39:28.523Z,18.55
2016-01-17T04:40:28.572Z,18.46
2016-01-17T04:41:28.606Z,18.57
2016-01-17T04:42:28.671Z,18.58
2016-01-17T04:43:28.673Z,18.58
2016-01-17T04:44:28.724Z,18.58
2016-01-17T04:45:28.757Z,18.53
2016-01-17T04:46:28.823Z,18.52
2016-01-17T04:47:28.981Z,18.44
2016-01-17T04:48:28.887Z,18.52
2016-01-17T04:49:29.000Z,18.43
2016-01-17T04:50:28.971Z,18.5
2016-01-17T04:51:29.020Z,18.46
2016-01-17T04:52:29.071Z,18.57
2016-01-17T04:53:29.120Z,18.43
2016-01-17T04:54:29.138Z,18.46
2016-01-17T04:55:29.344Z,18.46
2016-01-17T04:56:29.207Z,18.42
2016-01-17T04:57:29.256Z,18.39
2016-01-17T04:58:29.337Z,18.44
2016-01-17T04:59:29.356Z,18.4
2016-01-17T05:00:29.421Z,18.42
2016-01-17T05:01:29.424Z,18.44
2016-01-17T05:02:29.474Z,18.42
2016-01-17T05:03:29.523Z,18.47
2016-01-17T05:04:29.573Z,18.49
2016-01-17T05:05:29.576Z,18.47
2016-01-17T05:06:29.673Z,18.5
2016-01-17T05:07:29.707Z,18.46
2016-01-17T05:08:29.725Z,18.42
2016-01-17T05:09:29.759Z,18.49
2016-01-17T05:10:29.808Z,18.46
2016-01-17T05:11:29.826Z,18.42
2016-01-17T05:12:29.860Z,18.42
2016-01-17T05:13:29.925Z,18.44
2016-01-17T05:14:29.975Z,18.46
2016-01-17T05:15:30.025Z,18.55
2016-01-17T05:16:30.075Z,18.57
2016-01-17T05:17:30.092Z,18.57
2016-01-17T05:18:30.159Z,18.52
2016-01-17T05:19:30.161Z,18.57
2016-01-17T05:20:30.225Z,18.52
2016-01-17T05:21:30.244Z,18.52
2016-01-17T05:22:30.309Z,18.58
2016-01-17T05:23:30.359Z,18.5
2016-01-17T05:24:30.403Z,18.49
2016-01-17T05:25:30.392Z,18.46
2016-01-17T05:26:30.272Z,18.46
2016-01-17T05:27:30.465Z,18.46
2016-01-17T05:28:30.485Z,18.44
2016-01-17T05:29:30.556Z,18.42
2016-01-17T05:30:30.570Z,18.42
2016-01-17T05:31:30.599Z,18.46
2016-01-17T05:32:30.628Z,18.42
2016-01-17T05:33:30.674Z,18.44
2016-01-17T05:34:30.720Z,18.4
2016-01-17T05:35:30.751Z,18.47
2016-01-17T05:36:30.799Z,18.42
2016-01-17T05:37:30.815Z,18.44
2016-01-17T05:38:30.878Z,18.46
2016-01-17T05:39:30.896Z,18.42
2016-01-17T05:40:30.991Z,18.52
2016-01-17T05:41:31.025Z,18.5
2016-01-17T05:42:31.073Z,18.57
2016-01-17T05:43:31.060Z,18.46
2016-01-17T05:44:31.109Z,18.58
2016-01-17T05:45:31.143Z,18.46
2016-01-17T05:46:31.193Z,18.53
2016-01-17T05:47:31.242Z,18.57
2016-01-17T05:48:31.291Z,18.43
2016-01-17T05:49:31.326Z,18.4
2016-01-17T05:50:31.360Z,18.46
2016-01-17T05:51:31.408Z,18.37
2016-01-17T05:52:31.459Z,18.44
2016-01-17T05:53:31.524Z,18.37
2016-01-17T05:54:31.541Z,18.49
2016-01-17T05:55:31.560Z,18.44
2016-01-17T05:56:31.594Z,18.44
2016-01-17T05:57:31.644Z,18.49
2016-01-17T05:58:31.710Z,18.55
2016-01-17T05:59:31.727Z,18.44
2016-01-17T06:00:31.902Z,18.42
2016-01-17T06:01:31.890Z,18.44
2016-01-17T06:02:31.846Z,18.5
2016-01-17T06:03:31.941Z,18.53
2016-01-17T06:04:31.928Z,18.61
2016-01-17T06:05:31.979Z,18.76
2016-01-17T06:06:32.073Z,18.71
2016-01-17T06:07:32.201Z,18.87
2016-01-17T06:08:31.954Z,18.98
2016-01-17T06:09:32.161Z,19.02
2016-01-17T06:10:32.195Z,19.09
2016-01-17T06:11:32.244Z,19.14
2016-01-17T06:12:32.294Z,19.15
2016-01-17T06:13:32.343Z,19.23
2016-01-17T06:14:32.362Z,19.27
2016-01-17T06:15:32.411Z,19.35
2016-01-17T06:16:32.445Z,19.38
2016-01-17T06:17:32.511Z,19.39
2016-01-17T06:18:32.544Z,19.32
2016-01-17T06:19:33.000Z,19.39
2016-01-17T06:20:32.737Z,19.39
2016-01-17T06:21:32.694Z,19.42
2016-01-17T06:22:32.711Z,19.51
2016-01-17T06:23:32.777Z,19.39
2016-01-17T06:24:32.794Z,19.48
2016-01-17T06:25:32.845Z,19.5
2016-01-17T06:26:32.878Z,19.53
2016-01-17T06:27:32.990Z,19.55
2016-01-17T06:28:32.993Z,19.6
2016-01-17T06:29:33.058Z,19.6
2016-01-17T06:30:33.186Z,19.61
2016-01-17T06:31:33.110Z,19.64
2016-01-17T06:32:33.160Z,19.6
2016-01-17T06:33:33.240Z,19.57
2016-01-17T06:34:33.260Z,19.55
2016-01-17T06:35:33.277Z,19.6
2016-01-17T06:36:33.343Z,19.58
2016-01-17T06:37:33.346Z,19.58
2016-01-17T06:38:33.395Z,19.63
2016-01-17T06:39:33.254Z,19.64
2016-01-17T06:40:33.507Z,19.6
2016-01-17T06:41:33.573Z,19.65
2016-01-17T06:42:33.607Z,19.63
2016-01-17T06:43:33.625Z,19.64
2016-01-17T06:44:33.736Z,19.65
2016-01-17T06:45:33.723Z,19.65
2016-01-17T06:46:33.758Z,19.73
2016-01-17T06:47:33.776Z,19.65
2016-01-17T06:48:33.748Z,19.73
2016-01-17T06:49:33.891Z,19.71
2016-01-17T06:50:33.925Z,19.79
2016-01-17T06:51:33.958Z,19.64
2016-01-17T06:52:34.009Z,19.72
2016-01-17T06:53:34.042Z,19.76
2016-01-17T06:54:34.216Z,19.76
2016-01-17T06:55:34.133Z,19.73
2016-01-17T06:56:34.199Z,19.65
2016-01-17T06:57:34.217Z,19.71
2016-01-17T06:58:34.282Z,19.65
2016-01-17T06:59:34.285Z,19.64
2016-01-17T07:00:34.381Z,19.69
2016-01-17T07:01:34.400Z,19.6
2016-01-17T07:02:34.419Z,19.69
2016-01-17T07:03:34.547Z,19.61
2016-01-17T07:04:34.659Z,19.6
2016-01-17T07:05:34.833Z,19.63
2016-01-17T07:06:34.602Z,19.63
2016-01-17T07:07:34.619Z,19.53
2016-01-17T07:08:34.701Z,19.53
2016-01-17T07:09:34.751Z,19.51
2016-01-17T07:10:34.769Z,19.55
2016-01-17T07:11:34.803Z,19.46
2016-01-17T07:12:34.852Z,19.39
2016-01-17T07:13:34.933Z,19.51
2016-01-17T07:14:34.999Z,19.38
2016-01-17T07:15:35.002Z,19.51
2016-01-17T07:16:35.004Z,19.43
2016-01-17T07:17:35.085Z,19.46
2016-01-17T07:18:35.134Z,19.4
2016-01-17T07:19:35.152Z,19.4
2016-01-17T07:20:35.218Z,19.4
2016-01-17T07:21:35.252Z,19.36
2016-01-17T07:22:35.380Z,19.39
2016-01-17T07:23:35.336Z,19.4
2016-01-17T07:24:35.369Z,19.36
2016-01-17T07:25:35.529Z,19.31
2016-01-17T07:26:35.454Z,19.33
2016-01-17T07:27:35.534Z,19.36
2016-01-17T07:28:35.537Z,19.23
2016-01-17T07:29:35.617Z,19.23
2016-01-17T07:30:35.636Z,19.27
2016-01-17T07:31:35.717Z,19.27
2016-01-17T07:32:35.766Z,19.21
2016-01-17T07:33:35.800Z,19.28
2016-01-17T07:34:35.818Z,19.27
2016-01-17T07:35:35.853Z,19.23
2016-01-17T07:36:35.886Z,19.25
2016-01-17T07:37:35.936Z,19.32
2016-01-17T07:38:35.954Z,19.28
2016-01-17T07:39:36.020Z,19.28
2016-01-17T07:40:36.117Z,19.27
2016-01-17T07:41:36.087Z,19.24
2016-01-17T07:42:36.168Z,19.27
2016-01-17T07:43:36.234Z,19.24
2016-01-17T07:44:36.284Z,19.24
2016-01-17T07:45:36.255Z,19.23
2016-01-17T07:46:36.319Z,19.11
2016-01-17T07:47:36.338Z,19.23
2016-01-17T07:48:36.403Z,19.2
2016-01-17T07:49:36.625Z,19.27
2016-01-17T07:50:36.502Z,19.28
2016-01-17T07:51:36.537Z,19.35
2016-01-17T07:52:36.555Z,19.39
2016-01-17T07:53:36.589Z,19.4
2016-01-17T07:54:36.655Z,19.42
2016-01-17T07:55:36.766Z,19.42
2016-01-17T07:56:36.722Z,19.4
2016-01-17T07:57:36.788Z,19.38
2016-01-17T07:58:36.836Z,19.38
2016-01-17T07:59:36.918Z,19.38
2016-01-17T08:00:36.920Z,19.4
2016-01-17T08:01:36.939Z,19.43
2016-01-17T08:02:36.972Z,19.42
2016-01-17T08:03:37.054Z,19.33
2016-01-17T08:04:37.057Z,19.36
2016-01-17T08:05:37.277Z,19.35
2016-01-17T08:06:37.171Z,19.46
2016-01-17T08:07:37.173Z,19.48
2016-01-17T08:08:37.223Z,19.53
2016-01-17T08:09:37.257Z,19.53
2016-01-17T08:10:37.322Z,19.43
2016-01-17T08:11:37.371Z,19.65
2016-01-17T08:12:37.499Z,19.65
2016-01-17T08:13:37.456Z,19.65
2016-01-17T08:14:37.583Z,19.71
2016-01-17T08:15:37.520Z,19.65
2016-01-17T08:16:37.586Z,19.73
2016-01-17T08:17:37.620Z,19.69
2016-01-17T08:18:37.653Z,19.58
2016-01-17T08:19:37.703Z,19.5
2016-01-17T08:20:37.722Z,19.5
2016-01-17T08:21:37.787Z,19.55
2016-01-17T08:22:37.805Z,19.46
2016-01-17T08:23:37.886Z,19.45
2016-01-17T08:24:37.919Z,19.51
2016-01-17T08:25:37.969Z,19.4
2016-01-17T08:26:37.972Z,19.43
2016-01-17T08:27:38.022Z,19.46
2016-01-17T08:28:38.071Z,19.46
2016-01-17T08:29:38.105Z,19.43
2016-01-17T08:30:38.155Z,19.43
2016-01-17T08:31:38.219Z,19.48
2016-01-17T08:32:38.222Z,19.5
2016-01-17T08:33:38.288Z,19.43
2016-01-17T08:34:38.306Z,19.58
2016-01-17T08:35:38.371Z,19.54
2016-01-17T08:36:38.421Z,19.45
2016-01-17T08:37:38.438Z,19.6
2016-01-17T08:38:38.489Z,19.53
2016-01-17T08:39:38.538Z,19.55
2016-01-17T08:40:38.588Z,19.55
2016-01-17T08:41:38.621Z,19.64
2016-01-17T08:42:38.671Z,19.65
2016-01-17T08:43:38.721Z,19.68
2016-01-17T08:44:38.754Z,19.69
2016-01-17T08:45:38.804Z,19.69
2016-01-17T08:46:38.838Z,19.6
2016-01-17T08:47:38.873Z,19.53
2016-01-17T08:48:38.937Z,19.46
2016-01-17T08:49:38.956Z,19.54
2016-01-17T08:50:39.006Z,19.43
2016-01-17T08:51:39.039Z,19.5
2016-01-17T08:52:39.089Z,19.48
2016-01-17T08:53:39.138Z,19.51
2016-01-17T08:54:39.203Z,19.48
2016-01-17T08:55:39.206Z,19.38
2016-01-17T08:56:39.272Z,19.21
2016-01-17T08:57:39.305Z,19.08
2016-01-17T08:58:39.325Z,19.23
2016-01-17T08:59:39.389Z,19.35
2016-01-17T09:00:39.439Z,19.39
2016-01-17T09:01:39.472Z,19.33
2016-01-17T09:02:39.522Z,19.48
2016-01-17T09:03:39.556Z,19.5
2016-01-17T09:04:39.605Z,19.68
2016-01-17T09:05:39.639Z,19.73
2016-01-17T09:06:39.689Z,19.76
2016-01-17T09:07:39.723Z,19.83
2016-01-17T09:08:39.772Z,19.88
2016-01-17T09:09:39.791Z,19.93
2016-01-17T09:10:39.856Z,19.87
2016-01-17T09:11:39.891Z,19.9
2016-01-17T09:12:39.907Z,19.98
2016-01-17T09:13:39.973Z,20.06
2016-01-17T09:14:40.023Z,20.01
2016-01-17T09:15:40.120Z,20.05
2016-01-17T09:16:40.090Z,19.94
2016-01-17T09:17:40.156Z,19.95
2016-01-17T09:18:40.174Z,19.95
2016-01-17T09:19:40.223Z,19.98
2016-01-17T09:20:40.258Z,19.94
2016-01-17T09:21:40.323Z,20.01
2016-01-17T09:22:40.373Z,19.98
2016-01-17T09:23:40.406Z,19.88
2016-01-17T09:24:40.440Z,19.87
2016-01-17T09:25:40.475Z,19.82
2016-01-17T09:26:40.539Z,19.86
2016-01-17T09:27:40.558Z,19.82
2016-01-17T09:28:40.608Z,19.76
2016-01-17T09:29:40.672Z,19.75
2016-01-17T09:30:40.691Z,19.69
2016-01-17T09:31:40.741Z,19.72
2016-01-17T09:32:40.774Z,19.69
2016-01-17T09:33:40.824Z,19.64
2016-01-17T09:34:40.874Z,19.61
2016-01-17T09:35:40.923Z,19.53
2016-01-17T09:36:40.957Z,19.58
2016-01-17T09:37:41.007Z,19.63
2016-01-17T09:38:41.024Z,19.63
2016-01-17T09:39:41.091Z,19.63
2016-01-17T09:40:41.140Z,19.63
2016-01-17T09:41:41.173Z,19.54
2016-01-17T09:42:41.223Z,19.5
2016-01-17T09:43:41.273Z,19.46
2016-01-17T09:44:41.322Z,19.51
2016-01-17T09:45:41.325Z,19.45
2016-01-17T09:46:41.374Z,19.57
2016-01-17T09:47:41.424Z,19.55
2016-01-17T09:48:41.459Z,19.53
2016-01-17T09:49:41.539Z,19.54
2016-01-17T09:50:41.557Z,19.6
2016-01-17T09:51:41.920Z,19.5
2016-01-17T09:52:41.656Z,19.48
2016-01-17T09:53:41.675Z,19.48
2016-01-17T09:54:42.442Z,19.48
2016-01-17T09:55:41.836Z,19.45
2016-01-17T09:56:41.808Z,19.55
2016-01-17T09:57:41.843Z,19.65
2016-01-17T09:58:41.876Z,19.63
2016-01-17T09:59:41.927Z,19.64
2016-01-17T10:00:41.977Z,19.64
2016-01-17T10:01:42.026Z,19.61
2016-01-17T10:02:42.059Z,19.63
2016-01-17T10:03:42.109Z,19.61
2016-01-17T10:04:42.143Z,19.58
2016-01-17T10:05:42.193Z,19.63
2016-01-17T10:06:42.243Z,19.65
2016-01-17T10:07:42.276Z,19.64
2016-01-17T10:08:42.326Z,19.68
2016-01-17T10:09:42.345Z,19.71
2016-01-17T10:10:42.410Z,19.72
2016-01-17T10:11:42.460Z,19.73
2016-01-17T10:12:42.510Z,19.71
2016-01-17T10:13:42.543Z,19.69
2016-01-17T10:14:42.561Z,19.69
2016-01-17T10:15:42.626Z,19.64
2016-01-17T10:16:42.661Z,19.55
2016-01-17T10:17:42.695Z,19.6
2016-01-17T10:18:42.744Z,19.58
2016-01-17T10:19:42.794Z,19.58
2016-01-17T10:20:42.843Z,19.5
2016-01-17T10:21:42.862Z,19.53
2016-01-17T10:22:42.942Z,19.46
2016-01-17T10:23:42.961Z,19.5
2016-01-17T10:24:43.011Z,19.51
2016-01-17T10:25:43.092Z,19.39
2016-01-17T10:26:43.078Z,19.43
2016-01-17T10:27:43.128Z,19.45
2016-01-17T10:28:43.178Z,19.45
2016-01-17T10:29:43.243Z,19.43
2016-01-17T10:30:43.260Z,19.38
2016-01-17T10:31:43.311Z,19.36
2016-01-17T10:32:43.345Z,19.43
2016-01-17T10:33:43.378Z,19.33
2016-01-17T10:34:43.397Z,19.38
2016-01-17T10:35:43.463Z,19.38
2016-01-17T10:36:43.496Z,19.35
2016-01-17T10:37:43.561Z,19.38
2016-01-17T10:38:43.579Z,19.36
2016-01-17T10:39:43.644Z,19.35
2016-01-17T10:40:43.663Z,19.4
2016-01-17T10:41:43.729Z,19.4
2016-01-17T10:43:20.371Z,19.38
2016-01-17T10:43:43.812Z,19.38
2016-01-17T10:44:44.048Z,19.38
2016-01-17T10:45:44.051Z,19.38
2016-01-17T10:46:43.945Z,19.32
2016-01-17T10:47:43.979Z,19.46
2016-01-17T10:48:44.029Z,19.33
2016-01-17T10:49:44.046Z,19.38
2016-01-17T10:50:44.159Z,19.4
2016-01-17T10:51:44.131Z,19.45
2016-01-17T10:52:44.195Z,19.36
2016-01-17T10:53:44.261Z,19.46
2016-01-17T10:54:44.263Z,19.51
2016-01-17T10:55:44.297Z,19.5
2016-01-17T10:56:44.362Z,19.46
2016-01-17T10:57:44.396Z,19.33
2016-01-17T10:58:44.508Z,19.5
2016-01-17T10:59:44.495Z,19.43
2016-01-17T11:00:44.513Z,19.36
2016-01-17T11:01:44.547Z,19.45
2016-01-17T11:02:44.613Z,19.38
2016-01-17T11:03:44.631Z,19.42
2016-01-17T11:04:44.680Z,19.33
2016-01-17T11:05:44.777Z,19.43
2016-01-17T11:06:44.780Z,19.53
2016-01-17T11:07:44.860Z,19.51
2016-01-17T11:08:44.879Z,19.48
2016-01-17T11:09:44.913Z,19.46
2016-01-17T11:10:44.963Z,19.42
2016-01-17T11:11:44.996Z,19.53
2016-01-17T11:12:45.030Z,19.48
2016-01-17T11:13:45.095Z,19.38
2016-01-17T11:14:45.129Z,19.45
2016-01-17T11:15:45.148Z,19.45
2016-01-17T11:16:45.197Z,19.43
2016-01-17T11:17:45.231Z,19.38
2016-01-17T11:18:45.296Z,19.46
2016-01-17T11:19:45.299Z,19.48
2016-01-17T11:20:45.348Z,19.48
2016-01-17T11:21:45.414Z,19.5
2016-01-17T11:22:45.464Z,19.48
2016-01-17T11:23:45.512Z,19.48
2016-01-17T11:24:45.547Z,19.51
2016-01-17T11:25:45.565Z,19.45
2016-01-17T11:26:45.600Z,19.51
2016-01-17T11:27:45.930Z,19.58
2016-01-17T11:28:46.058Z,19.58
2016-01-17T11:29:46.061Z,19.61
2016-01-17T11:30:45.844Z,19.55
2016-01-17T11:31:45.816Z,19.68
2016-01-17T11:32:45.881Z,19.64
2016-01-17T11:33:45.914Z,19.64
2016-01-17T11:34:45.964Z,19.6
2016-01-17T11:35:45.998Z,19.55
2016-01-17T11:36:46.063Z,19.55
2016-01-17T11:37:46.066Z,19.46
2016-01-17T11:38:46.147Z,19.46
2016-01-17T11:39:46.165Z,19.46
2016-01-17T11:40:46.215Z,19.54
2016-01-17T11:41:46.280Z,19.5
2016-01-17T11:42:46.298Z,19.51
2016-01-17T11:43:46.348Z,19.55
2016-01-17T11:44:46.366Z,19.48
2016-01-17T11:45:46.447Z,19.54
2016-01-17T11:46:46.450Z,19.51
2016-01-17T11:47:46.515Z,19.48
2016-01-17T11:48:46.565Z,19.58
2016-01-17T11:49:46.582Z,19.64
2016-01-17T11:50:46.618Z,19.6
2016-01-17T11:51:46.667Z,19.57
2016-01-17T11:52:46.732Z,19.55
2016-01-17T11:53:46.751Z,19.51
2016-01-17T11:54:46.800Z,19.58
2016-01-17T11:55:46.848Z,19.63
2016-01-17T11:56:46.884Z,19.65
2016-01-17T11:57:46.933Z,19.65
2016-01-17T11:58:46.966Z,19.61
2016-01-17T11:59:47.016Z,19.68
2016-01-17T12:00:47.050Z,19.64
2016-01-17T12:01:47.115Z,19.54
2016-01-17T12:02:47.133Z,19.55
2016-01-17T12:03:47.183Z,19.64
2016-01-17T12:04:47.233Z,19.58
2016-01-17T12:05:47.266Z,19.55
2016-01-17T12:06:47.316Z,19.57
2016-01-17T12:07:47.350Z,19.6
2016-01-17T12:08:47.384Z,19.63
2016-01-17T12:09:47.433Z,19.64
2016-01-17T12:10:47.499Z,19.68
2016-01-17T12:11:47.549Z,19.69
2016-01-17T12:12:47.583Z,19.69
2016-01-17T12:13:47.601Z,19.63
2016-01-17T12:14:47.649Z,19.64
2016-01-17T12:15:47.716Z,19.63
2016-01-17T12:16:47.734Z,19.6
2016-01-17T12:17:47.798Z,19.69
2016-01-17T12:18:47.849Z,19.63
2016-01-17T12:19:47.929Z,19.65
2016-01-17T12:20:47.900Z,19.64
2016-01-17T12:21:47.951Z,19.63
2016-01-17T12:22:48.000Z,19.68
2016-01-17T12:23:48.034Z,19.63
2016-01-17T12:24:48.067Z,19.71
2016-01-17T12:25:48.117Z,19.76
2016-01-17T12:26:48.198Z,19.68
2016-01-17T12:27:48.200Z,19.73
2016-01-17T12:28:48.234Z,19.72
2016-01-17T12:29:48.300Z,19.63
2016-01-17T12:30:48.317Z,19.68
2016-01-17T12:31:48.383Z,19.64
2016-01-17T12:32:48.402Z,19.71
2016-01-17T12:33:48.498Z,19.61
2016-01-17T12:34:48.517Z,19.69
2016-01-17T12:35:48.566Z,19.76
2016-01-17T12:36:48.600Z,19.79
2016-01-17T12:37:48.619Z,19.78
2016-01-17T12:38:48.669Z,19.8
2016-01-17T12:39:48.732Z,19.86
2016-01-17T12:40:48.767Z,19.82
2016-01-17T12:41:48.816Z,19.83
2016-01-17T12:42:48.850Z,19.93
2016-01-17T12:43:48.900Z,19.91
2016-01-17T12:44:48.950Z,19.9
2016-01-17T12:45:48.827Z,19.8
2016-01-17T12:46:49.002Z,19.86
2016-01-17T12:47:49.067Z,19.87
2016-01-17T12:48:49.101Z,19.9
2016-01-17T12:49:49.166Z,19.91
2016-01-17T12:50:49.262Z,19.87
2016-01-17T12:51:49.281Z,19.8
2016-01-17T12:52:49.284Z,19.8
2016-01-17T12:53:49.349Z,19.75
2016-01-17T12:54:49.367Z,19.82